• Join FlightAware (Why Join?)
  • Login
  • US Flag 
04:16AM EDT


 

Airport Tracker/Info


-or-


 

Live Flight TrackerFlight Track Log ✈ FSR411 ✈ 16-May-2013 ✈ KCMI - KDET

Flight Track Log - Related Links

Times and Time Zones

All times are in EDT time to prevent confusion due to time zone crossing. See the FSR411 flight status page for this flight to view local times or setup timezone preferences in your user account.

Time Position Orientation Groundspeed Altitude Reporting Facility
EDT Latitude Longitude Course Direction KTS MPH feet Rate Location/Type
07:04AM 40.0781 -88.2689 75° East 186 214 3,400  Level Chicago Center
07:05AM 40.0994 -88.1942 69° East 218 251 6,700 3,240 Climbing Chicago Center
07:06AM 40.1294 -88.1036 67° East 249 287 10,000 3,120 Climbing Chicago Center
07:07AM 40.1614 -87.9981 68° East 296 341 13,100 3,240 Climbing Chicago Center
07:08AM 40.2298 -87.6609 66° East  Level FlightAware Approximate
07:08AM 40.1978 -87.8778 68° East 353 406 16,600  Level Chicago Center
07:09AM 40.2628 -87.5360 75° East  Level FlightAware Approximate
07:09AM 40.2356 -87.7547 68° East 368 423 20,600  Level Chicago Center
07:10AM 40.2736 -87.6306 68° East 369 425 23,600 2,940 Climbing Chicago Center
07:11AM 40.3206 -87.4767 68° East 380 437 26,600 1,680 Climbing Chicago Center
07:12AM 40.3561 -87.3544 69° East 401 461 27,000 180 Climbing Chicago Center
07:13AM 40.4058 -87.1919 68° East 474 545 27,000  Level Chicago Center
07:14AM 40.4558 -87.0233 69° East 493 567 27,000  Level Chicago Center
07:15AM 40.5039 -86.8581 69° East 488 562 27,000  Level Chicago Center
07:16AM 40.5544 -86.6883 69° East 496 571 27,000  Level Chicago Center
07:17AM 40.6144 -86.4811 69° East 503 579 27,000  Level Chicago Center
07:18AM 40.6642 -86.3081 69° East 505 581 27,000  Level Chicago Center
07:19AM 40.7094 -86.1522 69° East 501 577 27,000  Level Chicago Center
07:20AM 40.7586 -85.9825 69° East 500 575 27,000 -660 Level Chicago Center
07:21AM 40.8061 -85.8133 70° East 497 572 25,700 -1,500 Descending Chicago Center
07:22AM 40.8533 -85.6442 70° East 495 570 24,000 -840 Descending Chicago Center
07:23AM 40.9097 -85.4447 69° East 488 562 24,000 -480 Level Chicago Center
07:24AM 40.9544 -85.2736 71° East 496 571 23,100 -1,260 Descending Chicago Center
07:25AM 41.0022 -85.1094 69° East 490 564 21,500 -1,740 Descending Chicago Center
07:27AM 41.0531 -84.9531 67° East 472 543 19,600 -2,160 Descending Chicago Center
07:28AM 41.0983 -84.8025 68° East 453 521 17,100 -1,260 Descending Chicago Center
07:29AM 41.1458 -84.6514 67° East 447 514 17,100  Level Chicago Center
07:30AM 41.1928 -84.4975 68° East 452 520 17,100  Level Chicago Center
07:31AM 41.2492 -84.3117 68° East 455 524 17,100  Level Chicago Center
07:32AM 41.2961 -84.1561 68° East 450 518 17,100  Level Chicago Center
07:32AM 41.3161 -84.0889 68° East 443 510 17,100 -480 Level Cleveland Center
07:33AM 41.3606 -83.9364 69° East 443 510 16,500 -1,140 Descending Cleveland Center
07:34AM 41.4086 -83.7836 67° East 443 510 14,900 -1,680 Descending Cleveland Center
07:35AM 41.4503 -83.6361 69° East 443 510 13,200 -1,680 Descending Cleveland Center
07:36AM 41.5058 -83.4975 62° Northeast 432 497 11,600 -1,560 Descending Cleveland Center
07:37AM 41.5592 -83.3667 61° Northeast 415 478 10,100 -780 Descending Cleveland Center
07:38AM 41.6036 -83.2489 63° Northeast 378 435 10,100  Level Cleveland Center
07:38AM 41.6211 -83.2136 56° Northeast 352 405 10,100  Level Cleveland Center
07:39AM 41.6478 -83.1397 64° Northeast 347 399 10,100  Level Cleveland Center
07:39AM 41.6633 -83.1014 61° Northeast 328 377 10,100  Level Cleveland Center
07:40AM 41.6919 -83.0303 62° Northeast 333 383 10,100 -420 Level Cleveland Center
07:41AM 41.7561 -82.9603 39° Northeast 306 352 9,400 -960 Descending Cleveland Center
07:42AM 41.8297 -82.9267 19° North 278 320 8,200 -1,320 Descending Cleveland Center
07:42AM 41.8506 -82.9192 15° North 278 320 7,800 -1,440 Descending Cleveland Center
07:43AM 41.9342 -82.9111 North 264 304 6,300 -1,440 Descending Cleveland Center
07:44AM 41.9989 -82.9133 359° North 258 297 5,000 -1,140 Descending Cleveland Center
07:45AM 42.0800 -82.9136 360° North 263 303 4,100 -480 Descending Cleveland Center
07:46AM 42.1469 -82.9133 360° North 265 305 4,100 -240 Level Cleveland Center
07:47AM 42.2156 -82.9131 360° North 265 305 3,700 -540 Descending Cleveland Center
07:48AM 42.2867 -82.9100 North 217 250 3,100 -480 Descending Cleveland Center
07:49AM 42.3319 -82.9314 341° North 140 161 2,700 -720 Descending Cleveland Center
07:50AM 42.3647 -82.9633 324° Northwest 138 159 1,700 -1,020 Descending Cleveland Center
07:52AM 42.4000 -83.0000 North  Level FlightAware Approximate
07:59AM 42.4093 -83.0102 North  Level Estimated
08:00AM 42.4093 -83.0102 North  Level Estimated
08:01AM 42.4093 -83.0102 North  Level Estimated